sensor_id;sensor_type;location;lat;lon;timestamp;temperature;humidity
15556;DHT22;7879;48.660;9.116;2023-12-14T00:00:53;4.60;99.90
15556;DHT22;7879;48.660;9.116;2023-12-14T00:03:20;4.60;99.90
15556;DHT22;7879;48.660;9.116;2023-12-14T00:05:47;4.60;99.90
15556;DHT22;7879;48.660;9.116;2023-12-14T00:08:13;4.60;99.90
15556;DHT22;7879;48.660;9.116;2023-12-14T00:10:40;4.60;99.90
15556;DHT22;7879;48.660;9.116;2023-12-14T00:13:07;4.60;99.90
15556;DHT22;7879;48.660;9.116;2023-12-14T00:15:34;4.70;99.90
15556;DHT22;7879;48.660;9.116;2023-12-14T00:18:01;4.60;99.90
15556;DHT22;7879;48.660;9.116;2023-12-14T00:20:27;4.60;99.90
15556;DHT22;7879;48.660;9.116;2023-12-14T00:22:54;4.60;99.90
15556;DHT22;7879;48.660;9.116;2023-12-14T00:25:21;4.60;99.90
15556;DHT22;7879;48.660;9.116;2023-12-14T00:27:48;4.60;99.90
15556;DHT22;7879;48.660;9.116;2023-12-14T00:30:14;4.70;99.90
15556;DHT22;7879;48.660;9.116;2023-12-14T00:32:41;4.60;99.90
15556;DHT22;7879;48.660;9.116;2023-12-14T00:35:08;4.60;99.90
15556;DHT22;7879;48.660;9.116;2023-12-14T00:37:35;4.60;99.90
15556;DHT22;7879;48.660;9.116;2023-12-14T00:40:02;4.60;99.90
15556;DHT22;7879;48.660;9.116;2023-12-14T00:42:30;4.60;99.90
15556;DHT22;7879;48.660;9.116;2023-12-14T00:44:58;4.60;99.90
15556;DHT22;7879;48.660;9.116;2023-12-14T00:47:24;4.60;99.90
15556;DHT22;7879;48.660;9.116;2023-12-14T00:49:51;4.60;99.90
15556;DHT22;7879;48.660;9.116;2023-12-14T00:52:18;4.60;99.90
15556;DHT22;7879;48.660;9.116;2023-12-14T00:54:45;4.60;99.90
15556;DHT22;7879;48.660;9.116;2023-12-14T00:57:11;4.60;99.90
15556;DHT22;7879;48.660;9.116;2023-12-14T00:59:38;4.60;99.90
15556;DHT22;7879;48.660;9.116;2023-12-14T01:02:07;4.60;99.90
15556;DHT22;7879;48.660;9.116;2023-12-14T01:04:33;4.60;99.90
15556;DHT22;7879;48.660;9.116;2023-12-14T01:07:00;4.60;99.90
15556;DHT22;7879;48.660;9.116;2023-12-14T01:09:27;4.60;99.90
15556;DHT22;7879;48.660;9.116;2023-12-14T01:11:54;4.60;99.90
15556;DHT22;7879;48.660;9.116;2023-12-14T01:14:21;4.60;99.90
15556;DHT22;7879;48.660;9.116;2023-12-14T01:16:48;4.60;99.90
15556;DHT22;7879;48.660;9.116;2023-12-14T01:19:15;4.60;99.90
15556;DHT22;7879;48.660;9.116;2023-12-14T01:21:42;4.50;99.90
15556;DHT22;7879;48.660;9.116;2023-12-14T01:24:09;4.50;99.90
15556;DHT22;7879;48.660;9.116;2023-12-14T01:26:36;4.60;99.90
15556;DHT22;7879;48.660;9.116;2023-12-14T01:29:02;4.60;99.90
15556;DHT22;7879;48.660;9.116;2023-12-14T01:31:29;4.50;99.90
15556;DHT22;7879;48.660;9.116;2023-12-14T01:33:56;4.50;99.90
15556;DHT22;7879;48.660;9.116;2023-12-14T01:36:37;4.50;99.90
15556;DHT22;7879;48.660;9.116;2023-12-14T01:39:03;4.50;99.90
15556;DHT22;7879;48.660;9.116;2023-12-14T01:41:30;4.50;99.90
15556;DHT22;7879;48.660;9.116;2023-12-14T01:43:57;4.50;99.90
15556;DHT22;7879;48.660;9.116;2023-12-14T01:46:24;4.50;99.90
15556;DHT22;7879;48.660;9.116;2023-12-14T01:48:50;4.50;99.90
15556;DHT22;7879;48.660;9.116;2023-12-14T01:51:19;4.50;99.90
15556;DHT22;7879;48.660;9.116;2023-12-14T01:53:46;4.60;99.90
15556;DHT22;7879;48.660;9.116;2023-12-14T01:56:13;4.60;99.90
15556;DHT22;7879;48.660;9.116;2023-12-14T01:58:39;4.60;99.90
15556;DHT22;7879;48.660;9.116;2023-12-14T02:01:37;4.60;99.90
15556;DHT22;7879;48.660;9.116;2023-12-14T02:04:05;4.50;99.90
15556;DHT22;7879;48.660;9.116;2023-12-14T02:06:35;4.50;99.90
15556;DHT22;7879;48.660;9.116;2023-12-14T02:09:02;4.50;99.90
15556;DHT22;7879;48.660;9.116;2023-12-14T02:11:29;4.50;99.90
15556;DHT22;7879;48.660;9.116;2023-12-14T02:13:56;4.50;99.90
15556;DHT22;7879;48.660;9.116;2023-12-14T02:16:22;4.50;99.90
15556;DHT22;7879;48.660;9.116;2023-12-14T02:18:50;4.50;99.90
15556;DHT22;7879;48.660;9.116;2023-12-14T02:21:17;4.50;99.90
15556;DHT22;7879;48.660;9.116;2023-12-14T02:23:45;4.50;99.90
15556;DHT22;7879;48.660;9.116;2023-12-14T02:26:13;4.50;99.90
15556;DHT22;7879;48.660;9.116;2023-12-14T02:28:40;4.50;99.90
15556;DHT22;7879;48.660;9.116;2023-12-14T02:31:07;4.50;99.90
15556;DHT22;7879;48.660;9.116;2023-12-14T02:33:34;4.50;99.90
15556;DHT22;7879;48.660;9.116;2023-12-14T02:36:01;4.50;99.90
15556;DHT22;7879;48.660;9.116;2023-12-14T02:38:29;4.50;99.90
15556;DHT22;7879;48.660;9.116;2023-12-14T02:40:56;4.50;99.90
15556;DHT22;7879;48.660;9.116;2023-12-14T02:43:23;4.50;99.90
15556;DHT22;7879;48.660;9.116;2023-12-14T02:45:50;4.40;99.90
15556;DHT22;7879;48.660;9.116;2023-12-14T02:48:17;4.50;99.90
15556;DHT22;7879;48.660;9.116;2023-12-14T02:50:44;4.50;99.90
15556;DHT22;7879;48.660;9.116;2023-12-14T02:53:10;4.50;99.90
15556;DHT22;7879;48.660;9.116;2023-12-14T02:55:37;4.50;99.90
15556;DHT22;7879;48.660;9.116;2023-12-14T02:58:04;4.50;99.90
15556;DHT22;7879;48.660;9.116;2023-12-14T03:00:31;4.50;99.90
15556;DHT22;7879;48.660;9.116;2023-12-14T03:02:57;4.50;99.90
15556;DHT22;7879;48.660;9.116;2023-12-14T03:05:24;4.50;99.90
15556;DHT22;7879;48.660;9.116;2023-12-14T03:07:51;4.50;99.90
15556;DHT22;7879;48.660;9.116;2023-12-14T03:10:18;4.50;99.90
15556;DHT22;7879;48.660;9.116;2023-12-14T03:12:45;4.50;99.90
15556;DHT22;7879;48.660;9.116;2023-12-14T03:15:12;4.50;99.90
15556;DHT22;7879;48.660;9.116;2023-12-14T03:17:38;4.50;99.90
15556;DHT22;7879;48.660;9.116;2023-12-14T03:20:06;4.40;99.90
15556;DHT22;7879;48.660;9.116;2023-12-14T03:22:33;4.40;99.90
15556;DHT22;7879;48.660;9.116;2023-12-14T03:25:00;4.40;99.90
15556;DHT22;7879;48.660;9.116;2023-12-14T03:27:27;4.40;99.90
15556;DHT22;7879;48.660;9.116;2023-12-14T03:29:54;4.40;99.90
15556;DHT22;7879;48.660;9.116;2023-12-14T03:32:20;4.50;99.90
15556;DHT22;7879;48.660;9.116;2023-12-14T03:34:47;4.40;99.90
15556;DHT22;7879;48.660;9.116;2023-12-14T03:37:14;4.40;99.90
15556;DHT22;7879;48.660;9.116;2023-12-14T03:39:41;4.50;99.90
15556;DHT22;7879;48.660;9.116;2023-12-14T03:42:07;4.50;99.90
15556;DHT22;7879;48.660;9.116;2023-12-14T03:44:34;4.50;99.90
15556;DHT22;7879;48.660;9.116;2023-12-14T03:47:01;4.50;99.90
15556;DHT22;7879;48.660;9.116;2023-12-14T03:49:28;4.50;99.90
15556;DHT22;7879;48.660;9.116;2023-12-14T03:51:54;4.50;99.90
15556;DHT22;7879;48.660;9.116;2023-12-14T03:54:21;4.50;99.90
15556;DHT22;7879;48.660;9.116;2023-12-14T03:56:48;4.50;99.90
15556;DHT22;7879;48.660;9.116;2023-12-14T03:59:15;4.50;99.90
15556;DHT22;7879;48.660;9.116;2023-12-14T04:01:42;4.50;99.90
15556;DHT22;7879;48.660;9.116;2023-12-14T04:04:09;4.50;99.90
15556;DHT22;7879;48.660;9.116;2023-12-14T04:06:35;4.60;99.90
15556;DHT22;7879;48.660;9.116;2023-12-14T04:09:02;4.50;99.90
15556;DHT22;7879;48.660;9.116;2023-12-14T04:11:29;4.50;99.90
15556;DHT22;7879;48.660;9.116;2023-12-14T04:13:56;4.50;99.90
15556;DHT22;7879;48.660;9.116;2023-12-14T04:16:23;4.50;99.90
15556;DHT22;7879;48.660;9.116;2023-12-14T04:18:52;4.40;99.90
15556;DHT22;7879;48.660;9.116;2023-12-14T04:21:19;4.50;99.90
15556;DHT22;7879;48.660;9.116;2023-12-14T04:23:45;4.50;99.90
15556;DHT22;7879;48.660;9.116;2023-12-14T04:26:12;4.50;99.90
15556;DHT22;7879;48.660;9.116;2023-12-14T04:28:40;4.60;99.90
15556;DHT22;7879;48.660;9.116;2023-12-14T04:31:10;4.60;99.90
15556;DHT22;7879;48.660;9.116;2023-12-14T04:33:37;4.60;99.90
15556;DHT22;7879;48.660;9.116;2023-12-14T04:36:04;4.60;99.90
15556;DHT22;7879;48.660;9.116;2023-12-14T04:38:31;4.60;99.90
15556;DHT22;7879;48.660;9.116;2023-12-14T04:40:58;4.60;99.90
15556;DHT22;7879;48.660;9.116;2023-12-14T04:43:25;4.60;99.90
15556;DHT22;7879;48.660;9.116;2023-12-14T04:45:51;4.60;99.90
15556;DHT22;7879;48.660;9.116;2023-12-14T04:48:18;4.60;99.90
15556;DHT22;7879;48.660;9.116;2023-12-14T04:50:45;4.60;99.90
15556;DHT22;7879;48.660;9.116;2023-12-14T04:53:12;4.60;99.90
15556;DHT22;7879;48.660;9.116;2023-12-14T04:55:39;4.60;99.90
15556;DHT22;7879;48.660;9.116;2023-12-14T04:58:08;4.60;99.90
15556;DHT22;7879;48.660;9.116;2023-12-14T05:00:35;4.70;99.90
15556;DHT22;7879;48.660;9.116;2023-12-14T05:03:01;4.80;99.90
15556;DHT22;7879;48.660;9.116;2023-12-14T05:05:28;4.70;99.90
15556;DHT22;7879;48.660;9.116;2023-12-14T05:07:55;4.70;99.90
15556;DHT22;7879;48.660;9.116;2023-12-14T05:10:22;4.70;99.90
15556;DHT22;7879;48.660;9.116;2023-12-14T05:12:49;4.70;99.90
15556;DHT22;7879;48.660;9.116;2023-12-14T05:15:15;4.70;99.90
15556;DHT22;7879;48.660;9.116;2023-12-14T05:17:42;4.70;99.90
15556;DHT22;7879;48.660;9.116;2023-12-14T05:20:11;4.70;99.90
15556;DHT22;7879;48.660;9.116;2023-12-14T05:22:38;4.80;99.90
15556;DHT22;7879;48.660;9.116;2023-12-14T05:25:06;4.70;99.90
15556;DHT22;7879;48.660;9.116;2023-12-14T05:27:33;4.70;99.90
15556;DHT22;7879;48.660;9.116;2023-12-14T05:29:59;4.70;99.90
15556;DHT22;7879;48.660;9.116;2023-12-14T05:32:26;4.70;99.90
15556;DHT22;7879;48.660;9.116;2023-12-14T05:34:53;4.70;99.90
15556;DHT22;7879;48.660;9.116;2023-12-14T05:37:20;4.70;99.90
15556;DHT22;7879;48.660;9.116;2023-12-14T05:39:46;4.70;99.90
15556;DHT22;7879;48.660;9.116;2023-12-14T05:42:16;4.70;99.90
15556;DHT22;7879;48.660;9.116;2023-12-14T05:44:44;4.70;99.90
15556;DHT22;7879;48.660;9.116;2023-12-14T05:47:13;4.70;99.90
15556;DHT22;7879;48.660;9.116;2023-12-14T05:49:44;4.70;99.90
15556;DHT22;7879;48.660;9.116;2023-12-14T05:52:11;4.80;99.90
15556;DHT22;7879;48.660;9.116;2023-12-14T05:54:38;4.80;99.90
15556;DHT22;7879;48.660;9.116;2023-12-14T05:57:08;4.80;99.90
15556;DHT22;7879;48.660;9.116;2023-12-14T05:59:35;4.80;99.90
15556;DHT22;7879;48.660;9.116;2023-12-14T06:02:01;4.80;99.90
15556;DHT22;7879;48.660;9.116;2023-12-14T06:04:28;4.80;99.90
15556;DHT22;7879;48.660;9.116;2023-12-14T06:06:56;4.80;99.90
15556;DHT22;7879;48.660;9.116;2023-12-14T06:09:23;4.80;99.90
15556;DHT22;7879;48.660;9.116;2023-12-14T06:11:56;4.80;99.90
15556;DHT22;7879;48.660;9.116;2023-12-14T06:14:22;4.80;99.90
15556;DHT22;7879;48.660;9.116;2023-12-14T06:16:49;4.80;99.90
15556;DHT22;7879;48.660;9.116;2023-12-14T06:19:16;4.80;99.90
15556;DHT22;7879;48.660;9.116;2023-12-14T06:21:43;4.80;99.90
15556;DHT22;7879;48.660;9.116;2023-12-14T06:24:10;4.80;99.90
15556;DHT22;7879;48.660;9.116;2023-12-14T06:26:44;4.80;99.90
15556;DHT22;7879;48.660;9.116;2023-12-14T06:29:11;4.90;99.90
15556;DHT22;7879;48.660;9.116;2023-12-14T06:31:39;4.80;99.90
15556;DHT22;7879;48.660;9.116;2023-12-14T06:34:06;4.80;99.90
15556;DHT22;7879;48.660;9.116;2023-12-14T06:36:33;4.90;99.90
15556;DHT22;7879;48.660;9.116;2023-12-14T06:39:01;4.80;99.90
15556;DHT22;7879;48.660;9.116;2023-12-14T06:41:30;4.80;99.90
15556;DHT22;7879;48.660;9.116;2023-12-14T06:43:56;4.90;99.90
15556;DHT22;7879;48.660;9.116;2023-12-14T06:46:23;4.90;99.90
15556;DHT22;7879;48.660;9.116;2023-12-14T06:48:50;4.90;99.90
15556;DHT22;7879;48.660;9.116;2023-12-14T06:51:17;4.90;99.90
15556;DHT22;7879;48.660;9.116;2023-12-14T06:53:44;4.90;99.90
15556;DHT22;7879;48.660;9.116;2023-12-14T06:59:19;4.90;99.90
15556;DHT22;7879;48.660;9.116;2023-12-14T07:01:46;4.90;99.90
15556;DHT22;7879;48.660;9.116;2023-12-14T07:04:13;4.90;99.90
15556;DHT22;7879;48.660;9.116;2023-12-14T07:06:43;4.90;99.90
15556;DHT22;7879;48.660;9.116;2023-12-14T07:09:16;5.00;99.90
15556;DHT22;7879;48.660;9.116;2023-12-14T07:11:43;5.00;99.90
15556;DHT22;7879;48.660;9.116;2023-12-14T07:14:10;4.90;99.90
15556;DHT22;7879;48.660;9.116;2023-12-14T07:16:37;5.10;99.90
15556;DHT22;7879;48.660;9.116;2023-12-14T07:19:04;4.90;99.90
15556;DHT22;7879;48.660;9.116;2023-12-14T07:21:31;4.90;99.90
15556;DHT22;7879;48.660;9.116;2023-12-14T07:23:58;4.90;99.90
15556;DHT22;7879;48.660;9.116;2023-12-14T07:26:25;4.90;99.90
15556;DHT22;7879;48.660;9.116;2023-12-14T07:28:53;5.00;99.90
15556;DHT22;7879;48.660;9.116;2023-12-14T07:31:20;4.90;99.90
15556;DHT22;7879;48.660;9.116;2023-12-14T07:33:47;4.90;99.90
15556;DHT22;7879;48.660;9.116;2023-12-14T07:36:14;5.00;99.90
15556;DHT22;7879;48.660;9.116;2023-12-14T07:38:41;5.00;99.90
15556;DHT22;7879;48.660;9.116;2023-12-14T07:41:08;5.00;99.90
15556;DHT22;7879;48.660;9.116;2023-12-14T07:43:35;5.00;99.90
15556;DHT22;7879;48.660;9.116;2023-12-14T07:46:02;5.00;99.90
15556;DHT22;7879;48.660;9.116;2023-12-14T07:48:29;5.00;99.90
15556;DHT22;7879;48.660;9.116;2023-12-14T07:50:56;5.00;99.90
15556;DHT22;7879;48.660;9.116;2023-12-14T07:53:23;5.00;99.90
15556;DHT22;7879;48.660;9.116;2023-12-14T07:55:50;5.00;99.90
15556;DHT22;7879;48.660;9.116;2023-12-14T07:58:17;5.00;99.90
15556;DHT22;7879;48.660;9.116;2023-12-14T08:00:44;5.00;99.90
15556;DHT22;7879;48.660;9.116;2023-12-14T08:03:11;5.00;99.90
15556;DHT22;7879;48.660;9.116;2023-12-14T08:05:38;5.00;99.90
15556;DHT22;7879;48.660;9.116;2023-12-14T08:08:05;5.00;99.90
15556;DHT22;7879;48.660;9.116;2023-12-14T08:10:32;5.00;99.90
15556;DHT22;7879;48.660;9.116;2023-12-14T08:12:58;5.00;99.90
15556;DHT22;7879;48.660;9.116;2023-12-14T08:15:25;5.00;99.90
15556;DHT22;7879;48.660;9.116;2023-12-14T08:17:52;5.10;99.90
15556;DHT22;7879;48.660;9.116;2023-12-14T08:20:19;5.10;99.90
15556;DHT22;7879;48.660;9.116;2023-12-14T08:22:46;5.10;99.90
15556;DHT22;7879;48.660;9.116;2023-12-14T08:25:14;5.10;99.90
15556;DHT22;7879;48.660;9.116;2023-12-14T08:27:42;5.20;99.90
15556;DHT22;7879;48.660;9.116;2023-12-14T08:30:11;5.20;99.90
15556;DHT22;7879;48.660;9.116;2023-12-14T08:32:38;5.30;99.90
15556;DHT22;7879;48.660;9.116;2023-12-14T08:35:06;5.20;99.90
15556;DHT22;7879;48.660;9.116;2023-12-14T08:37:33;5.30;99.90
15556;DHT22;7879;48.660;9.116;2023-12-14T08:39:59;5.30;99.90
15556;DHT22;7879;48.660;9.116;2023-12-14T08:42:26;5.40;99.90
15556;DHT22;7879;48.660;9.116;2023-12-14T08:44:53;5.40;99.90
15556;DHT22;7879;48.660;9.116;2023-12-14T08:47:20;5.40;99.90
15556;DHT22;7879;48.660;9.116;2023-12-14T08:49:47;5.40;99.90
15556;DHT22;7879;48.660;9.116;2023-12-14T08:52:13;5.40;99.90
15556;DHT22;7879;48.660;9.116;2023-12-14T08:54:41;5.40;99.90
15556;DHT22;7879;48.660;9.116;2023-12-14T08:57:11;5.40;99.90
15556;DHT22;7879;48.660;9.116;2023-12-14T08:59:38;5.50;99.90
15556;DHT22;7879;48.660;9.116;2023-12-14T09:02:09;5.50;99.90
15556;DHT22;7879;48.660;9.116;2023-12-14T09:04:36;5.50;99.90
15556;DHT22;7879;48.660;9.116;2023-12-14T09:07:03;5.50;99.90
15556;DHT22;7879;48.660;9.116;2023-12-14T09:09:30;5.50;99.90
15556;DHT22;7879;48.660;9.116;2023-12-14T09:11:59;5.50;99.90
15556;DHT22;7879;48.660;9.116;2023-12-14T09:14:26;5.60;99.90
15556;DHT22;7879;48.660;9.116;2023-12-14T09:16:53;5.60;99.90
15556;DHT22;7879;48.660;9.116;2023-12-14T09:19:20;5.60;99.90
15556;DHT22;7879;48.660;9.116;2023-12-14T09:21:47;5.60;99.90
15556;DHT22;7879;48.660;9.116;2023-12-14T09:24:14;5.60;99.90
15556;DHT22;7879;48.660;9.116;2023-12-14T09:26:42;5.60;99.90
15556;DHT22;7879;48.660;9.116;2023-12-14T09:29:08;5.60;99.90
15556;DHT22;7879;48.660;9.116;2023-12-14T09:31:36;5.60;99.90
15556;DHT22;7879;48.660;9.116;2023-12-14T09:34:03;5.70;99.90
15556;DHT22;7879;48.660;9.116;2023-12-14T09:36:31;5.70;99.90
15556;DHT22;7879;48.660;9.116;2023-12-14T09:38:58;5.70;99.90
15556;DHT22;7879;48.660;9.116;2023-12-14T09:41:25;5.70;99.90
15556;DHT22;7879;48.660;9.116;2023-12-14T09:43:52;5.70;99.90
15556;DHT22;7879;48.660;9.116;2023-12-14T09:46:21;5.80;99.90
15556;DHT22;7879;48.660;9.116;2023-12-14T09:48:50;5.80;99.90
15556;DHT22;7879;48.660;9.116;2023-12-14T09:51:17;5.80;99.90
15556;DHT22;7879;48.660;9.116;2023-12-14T09:53:45;5.80;99.90
15556;DHT22;7879;48.660;9.116;2023-12-14T09:56:12;5.80;99.90
15556;DHT22;7879;48.660;9.116;2023-12-14T09:58:41;5.80;99.90
15556;DHT22;7879;48.660;9.116;2023-12-14T10:01:28;5.80;99.90
15556;DHT22;7879;48.660;9.116;2023-12-14T10:04:09;6.00;99.90
15556;DHT22;7879;48.660;9.116;2023-12-14T10:06:38;6.00;99.90
15556;DHT22;7879;48.660;9.116;2023-12-14T10:09:05;6.10;99.90
15556;DHT22;7879;48.660;9.116;2023-12-14T10:11:36;6.10;99.90
15556;DHT22;7879;48.660;9.116;2023-12-14T10:16:45;6.10;99.90
15556;DHT22;7879;48.660;9.116;2023-12-14T10:19:12;6.10;99.90
15556;DHT22;7879;48.660;9.116;2023-12-14T10:21:39;6.20;99.90
15556;DHT22;7879;48.660;9.116;2023-12-14T10:24:07;6.20;99.90
15556;DHT22;7879;48.660;9.116;2023-12-14T10:26:34;6.30;99.90
15556;DHT22;7879;48.660;9.116;2023-12-14T10:29:02;6.60;99.90
15556;DHT22;7879;48.660;9.116;2023-12-14T10:31:31;6.70;99.90
15556;DHT22;7879;48.660;9.116;2023-12-14T10:33:58;6.70;99.90
15556;DHT22;7879;48.660;9.116;2023-12-14T10:36:26;6.70;99.90
15556;DHT22;7879;48.660;9.116;2023-12-14T10:38:57;6.70;99.90
15556;DHT22;7879;48.660;9.116;2023-12-14T10:41:24;6.70;99.90
15556;DHT22;7879;48.660;9.116;2023-12-14T10:43:56;6.70;99.90
15556;DHT22;7879;48.660;9.116;2023-12-14T10:46:47;6.80;99.90
15556;DHT22;7879;48.660;9.116;2023-12-14T10:49:15;6.80;99.90
15556;DHT22;7879;48.660;9.116;2023-12-14T10:51:42;6.70;99.90
15556;DHT22;7879;48.660;9.116;2023-12-14T10:54:15;6.70;99.90
15556;DHT22;7879;48.660;9.116;2023-12-14T10:56:42;6.70;99.90
15556;DHT22;7879;48.660;9.116;2023-12-14T10:59:15;6.70;99.90
15556;DHT22;7879;48.660;9.116;2023-12-14T11:01:43;6.70;99.90
15556;DHT22;7879;48.660;9.116;2023-12-14T11:04:10;6.80;99.90
15556;DHT22;7879;48.660;9.116;2023-12-14T11:06:41;6.70;99.90
15556;DHT22;7879;48.660;9.116;2023-12-14T11:09:10;6.80;99.90
15556;DHT22;7879;48.660;9.116;2023-12-14T11:14:23;6.80;99.90
15556;DHT22;7879;48.660;9.116;2023-12-14T11:16:54;6.80;99.90
15556;DHT22;7879;48.660;9.116;2023-12-14T11:24:31;6.90;99.90
15556;DHT22;7879;48.660;9.116;2023-12-14T11:26:58;6.90;99.90
15556;DHT22;7879;48.660;9.116;2023-12-14T11:29:26;7.20;99.90
15556;DHT22;7879;48.660;9.116;2023-12-14T11:31:53;7.50;99.90
15556;DHT22;7879;48.660;9.116;2023-12-14T11:34:20;7.80;99.90
15556;DHT22;7879;48.660;9.116;2023-12-14T11:36:50;7.90;99.90
15556;DHT22;7879;48.660;9.116;2023-12-14T11:39:17;7.80;99.90
15556;DHT22;7879;48.660;9.116;2023-12-14T11:41:59;7.70;99.90
15556;DHT22;7879;48.660;9.116;2023-12-14T11:44:26;7.60;99.90
15556;DHT22;7879;48.660;9.116;2023-12-14T11:46:53;7.50;99.90
15556;DHT22;7879;48.660;9.116;2023-12-14T11:49:23;7.50;99.90
15556;DHT22;7879;48.660;9.116;2023-12-14T11:51:54;7.40;99.90
15556;DHT22;7879;48.660;9.116;2023-12-14T11:54:22;7.30;99.90
15556;DHT22;7879;48.660;9.116;2023-12-14T11:56:50;7.30;99.90
15556;DHT22;7879;48.660;9.116;2023-12-14T11:59:18;7.30;99.90
15556;DHT22;7879;48.660;9.116;2023-12-14T12:01:59;7.30;99.90
15556;DHT22;7879;48.660;9.116;2023-12-14T12:04:27;7.30;99.90
15556;DHT22;7879;48.660;9.116;2023-12-14T12:07:02;7.30;99.90
15556;DHT22;7879;48.660;9.116;2023-12-14T12:09:41;7.20;99.90
15556;DHT22;7879;48.660;9.116;2023-12-14T12:12:09;7.20;99.90
15556;DHT22;7879;48.660;9.116;2023-12-14T12:14:37;7.10;99.90
15556;DHT22;7879;48.660;9.116;2023-12-14T12:17:05;7.20;99.90
15556;DHT22;7879;48.660;9.116;2023-12-14T12:19:36;7.00;99.90
15556;DHT22;7879;48.660;9.116;2023-12-14T12:22:04;7.00;99.90
15556;DHT22;7879;48.660;9.116;2023-12-14T12:24:31;6.90;99.90
15556;DHT22;7879;48.660;9.116;2023-12-14T12:27:00;7.00;99.90
15556;DHT22;7879;48.660;9.116;2023-12-14T12:29:27;6.90;99.90
15556;DHT22;7879;48.660;9.116;2023-12-14T12:31:54;6.90;99.90
15556;DHT22;7879;48.660;9.116;2023-12-14T12:34:21;6.90;99.90
15556;DHT22;7879;48.660;9.116;2023-12-14T12:36:48;6.90;99.90
15556;DHT22;7879;48.660;9.116;2023-12-14T12:39:15;6.90;99.90
15556;DHT22;7879;48.660;9.116;2023-12-14T12:41:42;6.90;99.90
15556;DHT22;7879;48.660;9.116;2023-12-14T12:44:09;6.90;99.90
15556;DHT22;7879;48.660;9.116;2023-12-14T12:46:36;6.90;99.90
15556;DHT22;7879;48.660;9.116;2023-12-14T12:49:04;6.90;99.90
15556;DHT22;7879;48.660;9.116;2023-12-14T12:51:31;6.90;99.90
15556;DHT22;7879;48.660;9.116;2023-12-14T12:53:59;6.90;99.90
15556;DHT22;7879;48.660;9.116;2023-12-14T12:56:38;6.90;99.90
15556;DHT22;7879;48.660;9.116;2023-12-14T12:59:05;6.90;99.90
15556;DHT22;7879;48.660;9.116;2023-12-14T13:01:36;6.90;99.90
15556;DHT22;7879;48.660;9.116;2023-12-14T13:04:02;6.90;99.90
15556;DHT22;7879;48.660;9.116;2023-12-14T13:06:31;7.00;99.90
15556;DHT22;7879;48.660;9.116;2023-12-14T13:08:58;6.90;99.90
15556;DHT22;7879;48.660;9.116;2023-12-14T13:11:24;6.90;99.90
15556;DHT22;7879;48.660;9.116;2023-12-14T13:13:52;7.00;99.90
15556;DHT22;7879;48.660;9.116;2023-12-14T13:16:19;7.00;99.90
15556;DHT22;7879;48.660;9.116;2023-12-14T13:18:45;7.00;99.90
15556;DHT22;7879;48.660;9.116;2023-12-14T13:21:13;7.00;99.90
15556;DHT22;7879;48.660;9.116;2023-12-14T13:23:40;7.00;99.90
15556;DHT22;7879;48.660;9.116;2023-12-14T13:26:08;7.00;99.90
15556;DHT22;7879;48.660;9.116;2023-12-14T13:28:35;6.90;99.90
15556;DHT22;7879;48.660;9.116;2023-12-14T13:31:02;6.90;99.90
15556;DHT22;7879;48.660;9.116;2023-12-14T13:33:29;6.90;99.90
15556;DHT22;7879;48.660;9.116;2023-12-14T13:35:56;6.80;99.90
15556;DHT22;7879;48.660;9.116;2023-12-14T13:38:23;6.80;99.90
15556;DHT22;7879;48.660;9.116;2023-12-14T13:40:50;6.70;99.90
15556;DHT22;7879;48.660;9.116;2023-12-14T13:43:17;6.70;99.90
15556;DHT22;7879;48.660;9.116;2023-12-14T13:45:44;6.70;99.90
15556;DHT22;7879;48.660;9.116;2023-12-14T13:48:11;6.60;99.90
15556;DHT22;7879;48.660;9.116;2023-12-14T13:50:38;6.60;99.90
15556;DHT22;7879;48.660;9.116;2023-12-14T13:53:05;6.70;99.90
15556;DHT22;7879;48.660;9.116;2023-12-14T13:55:32;6.60;99.90
15556;DHT22;7879;48.660;9.116;2023-12-14T13:57:58;6.70;99.90
15556;DHT22;7879;48.660;9.116;2023-12-14T14:00:27;6.60;99.90
15556;DHT22;7879;48.660;9.116;2023-12-14T14:02:54;6.60;99.90
15556;DHT22;7879;48.660;9.116;2023-12-14T14:05:22;6.60;99.90
15556;DHT22;7879;48.660;9.116;2023-12-14T14:07:48;6.60;99.90
15556;DHT22;7879;48.660;9.116;2023-12-14T14:10:15;6.60;99.90
15556;DHT22;7879;48.660;9.116;2023-12-14T14:12:43;6.60;99.90
15556;DHT22;7879;48.660;9.116;2023-12-14T14:15:10;6.60;99.90
15556;DHT22;7879;48.660;9.116;2023-12-14T14:17:37;6.60;99.90
15556;DHT22;7879;48.660;9.116;2023-12-14T14:20:04;6.70;99.90
15556;DHT22;7879;48.660;9.116;2023-12-14T14:22:32;6.70;99.90
15556;DHT22;7879;48.660;9.116;2023-12-14T14:24:59;6.60;99.90
15556;DHT22;7879;48.660;9.116;2023-12-14T14:27:26;6.60;99.90
15556;DHT22;7879;48.660;9.116;2023-12-14T14:29:53;6.70;99.90
15556;DHT22;7879;48.660;9.116;2023-12-14T14:32:23;6.60;99.90
15556;DHT22;7879;48.660;9.116;2023-12-14T14:34:50;6.70;99.90
15556;DHT22;7879;48.660;9.116;2023-12-14T14:37:17;6.70;99.90
15556;DHT22;7879;48.660;9.116;2023-12-14T14:39:44;6.70;99.90
15556;DHT22;7879;48.660;9.116;2023-12-14T14:42:11;6.70;99.90
15556;DHT22;7879;48.660;9.116;2023-12-14T14:44:39;6.60;99.90
15556;DHT22;7879;48.660;9.116;2023-12-14T14:47:07;6.70;99.90
15556;DHT22;7879;48.660;9.116;2023-12-14T14:49:33;6.60;99.90
15556;DHT22;7879;48.660;9.116;2023-12-14T14:52:00;6.60;99.90
15556;DHT22;7879;48.660;9.116;2023-12-14T14:54:27;6.60;99.90
15556;DHT22;7879;48.660;9.116;2023-12-14T14:56:54;6.60;99.90
15556;DHT22;7879;48.660;9.116;2023-12-14T14:59:20;6.50;99.90
15556;DHT22;7879;48.660;9.116;2023-12-14T15:01:49;6.60;99.90
15556;DHT22;7879;48.660;9.116;2023-12-14T15:04:17;6.50;99.90
15556;DHT22;7879;48.660;9.116;2023-12-14T15:06:45;6.60;99.90
15556;DHT22;7879;48.660;9.116;2023-12-14T15:09:12;6.50;99.90
15556;DHT22;7879;48.660;9.116;2023-12-14T15:11:39;6.50;99.90
15556;DHT22;7879;48.660;9.116;2023-12-14T15:14:06;6.50;99.90
15556;DHT22;7879;48.660;9.116;2023-12-14T15:16:33;6.50;99.90
15556;DHT22;7879;48.660;9.116;2023-12-14T15:18:59;6.50;99.90
15556;DHT22;7879;48.660;9.116;2023-12-14T15:21:26;6.50;99.90
15556;DHT22;7879;48.660;9.116;2023-12-14T15:23:53;6.50;99.90
15556;DHT22;7879;48.660;9.116;2023-12-14T15:26:20;6.50;99.90
15556;DHT22;7879;48.660;9.116;2023-12-14T15:28:47;6.40;99.90
15556;DHT22;7879;48.660;9.116;2023-12-14T15:31:15;6.40;99.90
15556;DHT22;7879;48.660;9.116;2023-12-14T15:33:42;6.40;99.90
15556;DHT22;7879;48.660;9.116;2023-12-14T15:36:09;6.50;99.90
15556;DHT22;7879;48.660;9.116;2023-12-14T15:38:36;6.40;99.90
15556;DHT22;7879;48.660;9.116;2023-12-14T15:41:03;6.40;99.90
15556;DHT22;7879;48.660;9.116;2023-12-14T15:43:30;6.30;99.90
15556;DHT22;7879;48.660;9.116;2023-12-14T15:45:57;6.30;99.90
15556;DHT22;7879;48.660;9.116;2023-12-14T15:48:23;6.30;99.90
15556;DHT22;7879;48.660;9.116;2023-12-14T15:50:50;6.30;99.90
15556;DHT22;7879;48.660;9.116;2023-12-14T15:53:17;6.30;99.90
15556;DHT22;7879;48.660;9.116;2023-12-14T15:55:44;6.30;99.90
15556;DHT22;7879;48.660;9.116;2023-12-14T15:58:11;6.20;99.90
15556;DHT22;7879;48.660;9.116;2023-12-14T16:00:38;6.20;99.90
15556;DHT22;7879;48.660;9.116;2023-12-14T16:03:05;6.10;99.90
15556;DHT22;7879;48.660;9.116;2023-12-14T16:05:35;6.10;99.90
15556;DHT22;7879;48.660;9.116;2023-12-14T16:08:02;6.10;99.90
15556;DHT22;7879;48.660;9.116;2023-12-14T16:10:28;6.10;99.90
15556;DHT22;7879;48.660;9.116;2023-12-14T16:12:55;6.00;99.90
15556;DHT22;7879;48.660;9.116;2023-12-14T16:15:22;6.10;99.90
15556;DHT22;7879;48.660;9.116;2023-12-14T16:17:49;6.00;99.90